createdAt,value
2019-03-25T00:01:25.029Z,7.10
2019-03-25T00:04:33.639Z,7.10
2019-03-25T00:07:42.231Z,7.00
2019-03-25T00:10:50.729Z,7.00
2019-03-25T00:13:59.466Z,7.00
2019-03-25T00:17:08.088Z,7.00
2019-03-25T00:20:16.635Z,6.90
2019-03-25T00:23:25.171Z,6.90
2019-03-25T00:26:33.795Z,6.90
2019-03-25T00:29:42.313Z,6.90
2019-03-25T00:32:50.845Z,6.90
2019-03-25T00:35:59.383Z,6.80
2019-03-25T00:39:08.957Z,6.80
2019-03-25T00:42:17.525Z,6.80
2019-03-25T00:45:26.125Z,6.80
2019-03-25T00:48:34.643Z,6.80
2019-03-25T00:51:43.201Z,6.80
2019-03-25T00:54:51.757Z,6.80
2019-03-25T00:58:00.379Z,6.80
2019-03-25T01:01:08.981Z,6.70
2019-03-25T01:04:17.527Z,6.70
2019-03-25T01:07:26.008Z,6.80
2019-03-25T01:10:34.619Z,6.70
2019-03-25T01:13:43.245Z,6.70
2019-03-25T01:16:51.881Z,6.70
2019-03-25T01:20:00.404Z,6.70
2019-03-25T01:23:08.897Z,6.70
2019-03-25T01:26:17.441Z,6.70
2019-03-25T01:29:26.003Z,6.70
2019-03-25T01:32:34.584Z,6.70
2019-03-25T01:35:43.967Z,6.70
2019-03-25T01:38:52.488Z,6.70
2019-03-25T01:42:01.365Z,6.60
2019-03-25T01:45:10.092Z,6.60
2019-03-25T01:48:18.609Z,6.60
2019-03-25T01:51:27.125Z,6.60
2019-03-25T01:54:35.704Z,6.60
2019-03-25T01:57:44.215Z,6.60
2019-03-25T02:00:52.829Z,6.60
2019-03-25T02:04:01.333Z,6.60
2019-03-25T02:07:09.849Z,6.50
2019-03-25T02:10:18.449Z,6.50
2019-03-25T02:13:26.968Z,6.50
2019-03-25T02:16:37.256Z,6.50
2019-03-25T02:19:45.837Z,6.40
2019-03-25T02:22:54.519Z,6.40
2019-03-25T02:26:03.164Z,6.40
2019-03-25T02:29:11.646Z,6.40
2019-03-25T02:32:20.229Z,6.40
2019-03-25T02:35:28.779Z,6.40
2019-03-25T02:38:37.330Z,6.40
2019-03-25T02:41:46.273Z,6.30
2019-03-25T02:44:54.803Z,6.30
2019-03-25T02:48:03.398Z,6.30
2019-03-25T02:51:11.883Z,6.30
2019-03-25T02:54:20.387Z,6.30
2019-03-25T02:57:29.195Z,6.30
2019-03-25T03:00:39.301Z,6.30
2019-03-25T03:03:47.854Z,6.30
2019-03-25T03:06:56.436Z,6.30
2019-03-25T03:10:05.482Z,6.30
2019-03-25T03:13:14.055Z,6.20
2019-03-25T03:16:22.742Z,6.20
2019-03-25T03:19:31.323Z,6.20
2019-03-25T03:22:39.868Z,6.20
2019-03-25T03:25:57.398Z,6.20
2019-03-25T03:28:58.542Z,6.20
2019-03-25T03:32:07.071Z,6.20
2019-03-25T03:35:15.682Z,6.20
2019-03-25T03:38:24.391Z,6.20
2019-03-25T03:41:32.953Z,6.20
2019-03-25T03:44:41.478Z,6.20
2019-03-25T03:47:50.029Z,6.20
2019-03-25T03:50:58.872Z,6.20
2019-03-25T03:54:07.412Z,6.20
2019-03-25T03:57:16.197Z,6.20
2019-03-25T04:00:30.923Z,6.20
2019-03-25T04:03:40.495Z,6.20
2019-03-25T04:06:49.014Z,6.20
2019-03-25T04:09:57.478Z,6.20
2019-03-25T04:13:06.006Z,6.10
2019-03-25T04:16:14.530Z,6.00
2019-03-25T04:19:23.058Z,6.00
2019-03-25T04:22:31.547Z,6.00
2019-03-25T04:25:40.037Z,6.00
2019-03-25T04:28:48.573Z,6.00
2019-03-25T04:31:57.204Z,5.90
2019-03-25T04:35:05.885Z,5.90
2019-03-25T04:38:14.561Z,5.90
2019-03-25T04:41:23.076Z,6.00
2019-03-25T04:44:31.796Z,6.00
2019-03-25T04:47:40.445Z,6.00
2019-03-25T04:50:48.979Z,6.00
2019-03-25T04:53:58.608Z,6.00
2019-03-25T04:57:07.134Z,5.90
2019-03-25T05:00:15.780Z,5.90
2019-03-25T05:03:24.273Z,5.90
2019-03-25T05:06:32.816Z,5.90
2019-03-25T05:09:41.342Z,5.90
2019-03-25T05:12:49.942Z,5.90
2019-03-25T05:15:58.812Z,5.90
2019-03-25T05:19:07.330Z,5.90
2019-03-25T05:22:15.890Z,5.90
2019-03-25T05:25:24.395Z,5.90
2019-03-25T05:28:32.926Z,5.80
2019-03-25T05:31:41.441Z,5.80
2019-03-25T05:34:50.016Z,5.80
2019-03-25T05:37:58.528Z,5.90
2019-03-25T05:41:07.032Z,5.90
2019-03-25T05:44:15.863Z,5.90
2019-03-25T05:47:24.334Z,5.90
2019-03-25T05:50:32.900Z,6.00
2019-03-25T05:53:41.439Z,6.00
2019-03-25T05:56:49.957Z,6.00
2019-03-25T05:59:58.450Z,6.10
2019-03-25T06:03:07.008Z,6.10
2019-03-25T06:06:15.577Z,6.10
2019-03-25T06:09:24.243Z,6.20
2019-03-25T06:12:32.932Z,6.20
2019-03-25T06:15:41.456Z,6.20
2019-03-25T06:18:50.000Z,6.40
2019-03-25T06:21:58.654Z,6.50
2019-03-25T06:25:08.017Z,6.60
2019-03-25T06:28:16.550Z,7.00
2019-03-25T06:31:25.111Z,7.60
2019-03-25T06:34:33.738Z,7.90
2019-03-25T06:37:42.437Z,8.10
2019-03-25T06:40:51.018Z,8.10
2019-03-25T06:43:59.542Z,8.30
2019-03-25T06:47:08.093Z,8.70
2019-03-25T06:50:16.654Z,9.10
2019-03-25T06:53:25.201Z,9.20
2019-03-25T06:56:33.713Z,9.30
2019-03-25T06:59:42.376Z,9.30
2019-03-25T07:02:50.970Z,10.10
2019-03-25T07:05:59.534Z,10.90
2019-03-25T07:09:09.567Z,11.30
2019-03-25T07:12:18.344Z,11.30
2019-03-25T07:15:29.250Z,10.90
2019-03-25T07:18:38.756Z,10.90
2019-03-25T07:21:47.326Z,11.30
2019-03-25T07:24:55.793Z,11.60
2019-03-25T07:28:04.430Z,12.40
2019-03-25T07:31:13.006Z,12.90
2019-03-25T07:34:21.512Z,13.50
2019-03-25T07:37:30.175Z,14.00
2019-03-25T07:40:38.738Z,14.10
2019-03-25T07:43:47.289Z,14.50
2019-03-25T07:46:55.847Z,14.40
2019-03-25T07:50:04.585Z,13.60
2019-03-25T07:53:13.180Z,13.50
2019-03-25T07:56:21.742Z,13.00
2019-03-25T07:59:30.268Z,12.70
2019-03-25T08:02:38.837Z,13.10
2019-03-25T08:05:47.437Z,14.10
2019-03-25T08:09:03.814Z,14.80
2019-03-25T08:12:06.530Z,15.00
2019-03-25T08:15:16.152Z,15.20
2019-03-25T08:18:24.828Z,15.50
2019-03-25T08:21:33.596Z,14.70
2019-03-25T08:24:42.156Z,13.70
2019-03-25T08:27:59.438Z,13.20
2019-03-25T08:31:01.296Z,12.50
2019-03-25T08:34:09.889Z,12.10
2019-03-25T08:37:18.562Z,11.80
2019-03-25T08:40:27.147Z,11.00
2019-03-25T08:43:35.799Z,11.10
2019-03-25T08:46:44.322Z,11.00
2019-03-25T08:49:52.830Z,11.20
2019-03-25T08:53:01.330Z,11.40
2019-03-25T08:56:09.939Z,11.20
2019-03-25T08:59:18.747Z,11.00
2019-03-25T09:02:27.364Z,10.90
2019-03-25T09:05:35.890Z,11.10
2019-03-25T09:08:44.419Z,11.10
2019-03-25T09:11:52.932Z,10.90
2019-03-25T09:15:01.502Z,10.90
2019-03-25T09:18:10.105Z,10.70
2019-03-25T09:21:18.657Z,10.40
2019-03-25T09:24:27.165Z,10.60
2019-03-25T09:27:35.720Z,10.90
2019-03-25T09:31:22.318Z,10.90
2019-03-25T09:34:30.850Z,11.20
2019-03-25T09:37:39.718Z,11.30
2019-03-25T09:40:48.334Z,11.30
2019-03-25T09:43:56.920Z,11.30
2019-03-25T09:47:05.468Z,11.10
2019-03-25T09:50:14.129Z,11.70
2019-03-25T09:53:23.926Z,11.90
2019-03-25T09:56:32.561Z,11.90
2019-03-25T09:59:41.326Z,12.10
2019-03-25T10:02:49.935Z,12.20
2019-03-25T10:05:59.120Z,12.40
2019-03-25T10:09:11.450Z,13.20
2019-03-25T10:12:20.056Z,13.20
2019-03-25T10:15:28.586Z,13.60
2019-03-25T10:18:37.200Z,13.60
2019-03-25T10:21:45.807Z,12.90
2019-03-25T10:24:54.308Z,12.40
2019-03-25T10:28:02.840Z,12.00
2019-03-25T10:31:11.385Z,12.10
2019-03-25T10:34:19.921Z,12.60
2019-03-25T10:37:28.459Z,12.80
2019-03-25T10:40:37.096Z,13.60
2019-03-25T10:43:45.716Z,14.10
2019-03-25T10:46:54.306Z,13.80
2019-03-25T10:50:02.904Z,13.10
2019-03-25T10:53:11.518Z,12.70
2019-03-25T10:56:20.179Z,12.10
2019-03-25T10:59:28.681Z,11.50
2019-03-25T11:02:37.337Z,10.90
2019-03-25T11:05:47.129Z,10.00
2019-03-25T11:08:55.660Z,9.40
2019-03-25T11:12:04.646Z,8.80
2019-03-25T11:15:13.627Z,8.10
2019-03-25T11:18:22.155Z,7.60
2019-03-25T11:21:30.668Z,7.20
2019-03-25T11:24:39.384Z,7.00
2019-03-25T11:27:54.326Z,6.80
2019-03-25T11:31:00.011Z,6.90
2019-03-25T11:34:08.636Z,7.70
2019-03-25T11:37:17.171Z,8.50
2019-03-25T11:40:25.852Z,9.30
2019-03-25T11:43:34.596Z,10.20
2019-03-25T11:46:43.650Z,10.60
2019-03-25T11:49:52.868Z,11.00
2019-03-25T11:53:01.466Z,11.60
2019-03-25T11:56:10.056Z,12.00
2019-03-25T11:59:19.098Z,12.50
2019-03-25T12:02:27.758Z,13.00
2019-03-25T12:05:36.394Z,12.30
2019-03-25T12:08:45.015Z,11.40
2019-03-25T12:11:53.648Z,10.80
2019-03-25T12:15:02.254Z,10.30
2019-03-25T12:18:10.904Z,9.80
2019-03-25T12:21:19.447Z,8.90
2019-03-25T12:24:28.020Z,8.00
2019-03-25T12:27:37.786Z,7.20
2019-03-25T12:30:46.396Z,6.70
2019-03-25T12:33:54.949Z,6.40
2019-03-25T12:37:03.551Z,6.10
2019-03-25T12:40:12.316Z,6.10
2019-03-25T12:43:21.086Z,6.10
2019-03-25T12:46:29.919Z,6.30
2019-03-25T12:49:38.513Z,6.60
2019-03-25T12:52:48.212Z,6.70
2019-03-25T12:55:56.928Z,6.80
2019-03-25T12:59:05.599Z,7.00
2019-03-25T13:02:14.130Z,7.20
2019-03-25T13:05:22.799Z,7.30
2019-03-25T13:08:33.384Z,7.40
2019-03-25T13:11:41.901Z,7.50
2019-03-25T13:14:51.565Z,7.70
2019-03-25T13:18:00.297Z,7.90
2019-03-25T13:21:10.267Z,8.30
2019-03-25T13:24:18.865Z,8.80
2019-03-25T13:27:27.417Z,9.10
2019-03-25T13:30:36.300Z,9.20
2019-03-25T13:33:44.978Z,9.30
2019-03-25T13:36:54.248Z,9.40
2019-03-25T13:40:03.812Z,9.50
2019-03-25T13:43:12.421Z,9.50
2019-03-25T13:46:21.104Z,9.60
2019-03-25T13:49:29.663Z,9.60
2019-03-25T13:52:38.214Z,9.40
2019-03-25T13:55:47.107Z,9.30
2019-03-25T13:58:56.126Z,9.20
2019-03-25T14:02:06.745Z,9.00
2019-03-25T14:05:15.350Z,9.00
2019-03-25T14:08:24.003Z,9.00
2019-03-25T14:11:32.641Z,9.00
2019-03-25T14:14:41.569Z,9.10
2019-03-25T14:17:50.177Z,9.10
2019-03-25T14:20:58.737Z,8.90
2019-03-25T14:24:08.378Z,8.80
2019-03-25T14:27:16.907Z,8.70
2019-03-25T14:30:25.432Z,8.60
2019-03-25T14:33:33.964Z,8.60
2019-03-25T14:36:42.502Z,8.60
2019-03-25T14:39:51.269Z,8.40
2019-03-25T14:42:59.799Z,8.10
2019-03-25T14:46:08.383Z,7.70
2019-03-25T14:49:17.001Z,7.40
2019-03-25T14:52:25.617Z,7.30
2019-03-25T14:55:34.681Z,7.20
2019-03-25T14:58:43.289Z,6.80
2019-03-25T15:01:51.828Z,6.70
2019-03-25T15:05:00.358Z,6.60
2019-03-25T15:08:08.990Z,6.50
2019-03-25T15:11:17.599Z,6.50
2019-03-25T15:14:26.096Z,6.40
2019-03-25T15:17:34.783Z,6.20
2019-03-25T15:20:44.194Z,6.10
2019-03-25T15:23:53.865Z,5.80
2019-03-25T15:27:04.300Z,5.70
2019-03-25T15:30:13.475Z,5.60
2019-03-25T15:33:22.009Z,5.60
2019-03-25T15:36:30.570Z,5.50
2019-03-25T15:39:46.600Z,5.50
2019-03-25T15:42:50.979Z,5.40
2019-03-25T15:46:00.056Z,5.30
2019-03-25T15:49:08.680Z,5.20
2019-03-25T15:52:17.284Z,5.00
2019-03-25T15:55:25.989Z,5.00
2019-03-25T15:58:34.563Z,4.90
2019-03-25T16:01:43.679Z,4.90
2019-03-25T16:04:53.630Z,4.80
2019-03-25T16:08:02.217Z,4.80
2019-03-25T16:11:10.895Z,4.90
2019-03-25T16:14:19.547Z,4.90
2019-03-25T16:17:29.275Z,4.90
2019-03-25T16:20:39.077Z,4.90
2019-03-25T16:23:47.745Z,4.90
2019-03-25T16:26:56.461Z,4.80
2019-03-25T16:30:05.387Z,4.80
2019-03-25T16:33:15.199Z,4.90
2019-03-25T16:36:23.826Z,4.90
2019-03-25T16:39:32.721Z,5.00
2019-03-25T16:42:41.343Z,4.90
2019-03-25T16:45:49.975Z,4.80
2019-03-25T16:48:59.089Z,4.70
2019-03-25T16:52:08.228Z,4.60
2019-03-25T17:00:28.291Z,4.40
2019-03-25T17:03:36.907Z,4.30
2019-03-25T17:06:45.838Z,4.20
2019-03-25T17:09:58.677Z,4.10
2019-03-25T17:13:07.324Z,4.00
2019-03-25T17:16:16.001Z,4.00
2019-03-25T17:19:24.608Z,4.00
2019-03-25T17:22:53.189Z,3.90
2019-03-25T17:26:02.034Z,3.90
2019-03-25T17:29:10.761Z,3.90
2019-03-25T17:32:21.870Z,3.90
2019-03-25T17:35:30.467Z,3.90
2019-03-25T17:38:39.123Z,3.90
2019-03-25T17:41:47.749Z,3.90
2019-03-25T17:44:56.320Z,3.90
2019-03-25T17:48:04.973Z,4.00
2019-03-25T17:51:14.802Z,4.00
2019-03-25T17:54:23.444Z,4.00
2019-03-25T17:57:32.136Z,4.00
2019-03-25T18:01:32.078Z,4.10
2019-03-25T18:04:37.262Z,4.10
2019-03-25T18:07:46.021Z,4.20
2019-03-25T18:10:54.492Z,4.10
2019-03-25T18:14:03.021Z,4.20
2019-03-25T18:17:11.562Z,4.20
2019-03-25T18:20:20.551Z,4.20
2019-03-25T18:23:29.499Z,4.20
2019-03-25T18:26:39.399Z,4.10
2019-03-25T18:29:48.401Z,4.10
2019-03-25T18:32:58.203Z,4.00
2019-03-25T18:36:07.333Z,3.90
2019-03-25T18:39:15.992Z,3.80
2019-03-25T18:42:25.102Z,3.70
2019-03-25T18:45:34.809Z,3.70
2019-03-25T18:48:43.489Z,3.60
2019-03-25T18:51:56.065Z,3.60
2019-03-25T18:55:06.583Z,3.60
2019-03-25T18:58:18.151Z,3.60
2019-03-25T19:01:29.572Z,3.50
2019-03-25T19:04:43.173Z,3.60
2019-03-25T19:07:54.087Z,3.60
2019-03-25T19:11:04.306Z,3.60
2019-03-25T19:14:13.973Z,3.60
2019-03-25T19:17:24.130Z,3.60
2019-03-25T19:20:32.663Z,3.40
2019-03-25T19:23:42.274Z,3.40
2019-03-25T19:26:50.885Z,3.20
2019-03-25T19:29:59.673Z,3.10
2019-03-25T19:33:08.254Z,3.00
2019-03-25T19:36:19.732Z,2.90
2019-03-25T19:39:28.591Z,2.90
2019-03-25T19:42:39.863Z,2.80
2019-03-25T19:45:48.812Z,2.70
2019-03-25T19:48:58.164Z,2.70
2019-03-25T19:52:09.355Z,2.60
2019-03-25T19:55:18.119Z,2.50
2019-03-25T19:58:26.893Z,2.50
2019-03-25T20:01:36.365Z,2.60
2019-03-25T20:04:45.101Z,2.60
2019-03-25T20:07:53.897Z,2.60
2019-03-25T20:11:02.722Z,2.70
2019-03-25T20:14:12.111Z,2.70
2019-03-25T20:17:21.149Z,2.70
2019-03-25T20:20:29.955Z,2.70
2019-03-25T20:23:38.510Z,2.70
2019-03-25T20:26:47.362Z,2.70
2019-03-25T20:29:56.047Z,2.70
2019-03-25T20:33:04.923Z,2.60
2019-03-25T20:36:13.607Z,2.60
2019-03-25T20:39:22.239Z,2.60
2019-03-25T20:42:30.850Z,2.50
2019-03-25T20:45:39.906Z,2.40
2019-03-25T20:48:48.531Z,2.40
2019-03-25T20:51:57.183Z,2.30
2019-03-25T20:55:06.416Z,2.30
2019-03-25T20:58:16.165Z,2.20
2019-03-25T21:01:24.944Z,2.10
2019-03-25T21:04:33.966Z,2.10
2019-03-25T21:07:42.632Z,2.10
2019-03-25T21:10:51.328Z,2.00
2019-03-25T21:13:59.939Z,2.00
2019-03-25T21:17:08.564Z,1.90
2019-03-25T21:20:17.242Z,1.90
2019-03-25T21:23:25.857Z,1.90
2019-03-25T21:26:35.552Z,1.90
2019-03-25T21:29:44.158Z,1.90
2019-03-25T21:32:58.099Z,1.90
2019-03-25T21:36:03.020Z,1.80
2019-03-25T21:39:11.580Z,1.80
2019-03-25T21:42:20.294Z,1.80
2019-03-25T21:45:28.910Z,1.80
2019-03-25T21:48:39.880Z,1.70
2019-03-25T21:51:47.737Z,1.70
2019-03-25T21:54:56.308Z,1.70
2019-03-25T21:58:04.995Z,1.60
2019-03-25T22:01:13.629Z,1.60
2019-03-25T22:04:22.299Z,1.60
2019-03-25T22:07:30.952Z,1.50
2019-03-25T22:10:42.748Z,1.50
2019-03-25T22:13:49.765Z,1.50
2019-03-25T22:16:58.453Z,1.40
2019-03-25T22:20:09.107Z,1.40
2019-03-25T22:23:17.733Z,1.40
2019-03-25T22:26:26.407Z,1.40
2019-03-25T22:29:34.939Z,1.50
2019-03-25T22:32:43.685Z,1.60
2019-03-25T22:35:52.323Z,1.70
2019-03-25T22:39:00.907Z,1.70
2019-03-25T22:42:10.351Z,1.80
2019-03-25T22:45:27.718Z,1.90
2019-03-25T22:48:36.315Z,2.00
2019-03-25T22:51:44.998Z,2.00
2019-03-25T22:54:53.539Z,2.00
2019-03-25T22:58:02.123Z,2.10
2019-03-25T23:01:10.929Z,2.10
2019-03-25T23:04:19.651Z,2.10
2019-03-25T23:07:28.168Z,2.10
2019-03-25T23:10:36.954Z,2.10
2019-03-25T23:13:45.520Z,2.20
2019-03-25T23:16:54.043Z,2.20
2019-03-25T23:20:02.614Z,2.20
2019-03-25T23:23:11.173Z,2.20
2019-03-25T23:26:19.781Z,2.20
2019-03-25T23:29:31.247Z,2.20
2019-03-25T23:32:38.735Z,2.20
2019-03-25T23:35:47.367Z,2.30
2019-03-25T23:38:55.973Z,2.30
2019-03-25T23:42:04.561Z,2.30
2019-03-25T23:45:14.785Z,2.40
2019-03-25T23:48:23.371Z,2.40
2019-03-25T23:51:31.965Z,2.40
2019-03-25T23:54:40.517Z,2.40
2019-03-25T23:57:49.097Z,2.50
